createdAt,value
2017-05-31T00:00:09.247Z,0
2017-05-31T00:01:09.302Z,0
2017-05-31T00:02:09.352Z,0
2017-05-31T00:03:09.412Z,0
2017-05-31T00:04:09.466Z,0
2017-05-31T00:05:09.523Z,0
2017-05-31T00:06:09.575Z,0
2017-05-31T00:07:09.632Z,0
2017-05-31T00:08:09.688Z,0
2017-05-31T00:09:09.739Z,0
2017-05-31T00:10:09.795Z,0
2017-05-31T00:11:09.544Z,0
2017-05-31T00:12:09.902Z,0
2017-05-31T00:13:09.958Z,0
2017-05-31T00:14:09.710Z,0
2017-05-31T00:15:10.067Z,0
2017-05-31T00:16:09.823Z,0
2017-05-31T00:17:09.873Z,0
2017-05-31T00:18:10.228Z,0
2017-05-31T00:19:09.982Z,0
2017-05-31T00:20:10.341Z,0
2017-05-31T00:21:10.400Z,0
2017-05-31T00:22:10.451Z,0
2017-05-31T00:23:10.510Z,0
2017-05-31T00:24:10.556Z,0
2017-05-31T00:25:10.614Z,0
2017-05-31T00:26:10.871Z,0
2017-05-31T00:27:10.926Z,0
2017-05-31T00:28:10.176Z,0
2017-05-31T00:29:10.530Z,0
2017-05-31T00:30:10.895Z,0
2017-05-31T00:31:11.151Z,0
2017-05-31T00:32:11.199Z,0
2017-05-31T00:33:11.051Z,0
2017-05-31T00:34:11.108Z,0
2017-05-31T00:35:11.166Z,0
2017-05-31T00:36:11.225Z,0
2017-05-31T00:37:10.972Z,0
2017-05-31T00:38:11.025Z,0
2017-05-31T00:39:11.079Z,0
2017-05-31T00:40:11.437Z,0
2017-05-31T00:41:11.188Z,0
2017-05-31T00:42:11.141Z,0
2017-05-31T00:43:10.995Z,0
2017-05-31T00:44:11.352Z,0
2017-05-31T00:45:11.105Z,0
2017-05-31T00:46:11.462Z,0
2017-05-31T00:47:11.822Z,0
2017-05-31T00:48:11.873Z,0
2017-05-31T00:49:11.927Z,0
2017-05-31T00:50:11.986Z,0
2017-05-31T00:51:12.037Z,0
2017-05-31T00:52:12.101Z,0
2017-05-31T00:53:12.144Z,0
2017-05-31T00:54:12.201Z,0
2017-05-31T00:55:12.255Z,0
2017-05-31T00:56:12.312Z,0
2017-05-31T00:57:12.062Z,0
2017-05-31T00:58:12.418Z,0
2017-05-31T00:59:12.171Z,0
2017-05-31T01:00:12.731Z,0
2017-05-31T01:01:12.284Z,0
2017-05-31T01:02:12.640Z,0
2017-05-31T01:03:12.696Z,0
2017-05-31T01:04:12.652Z,0
2017-05-31T01:05:13.011Z,0
2017-05-31T01:06:12.859Z,0
2017-05-31T01:07:12.914Z,0
2017-05-31T01:08:12.966Z,0
2017-05-31T01:09:12.719Z,0
2017-05-31T01:10:27.707Z,0
2017-05-31T01:11:13.128Z,0
2017-05-31T01:12:13.185Z,0
2017-05-31T01:13:12.938Z,0
2017-05-31T01:14:12.995Z,0
2017-05-31T01:15:13.351Z,0
2017-05-31T01:16:13.401Z,0
2017-05-31T01:17:13.157Z,0
2017-05-31T01:18:13.212Z,0
2017-05-31T01:19:13.269Z,0
2017-05-31T01:20:13.625Z,0
2017-05-31T01:21:13.374Z,0
2017-05-31T01:22:13.735Z,0
2017-05-31T01:23:13.485Z,0
2017-05-31T01:24:13.839Z,0
2017-05-31T01:25:13.893Z,0
2017-05-31T01:26:13.650Z,0
2017-05-31T01:27:13.703Z,0
2017-05-31T01:28:13.760Z,0
2017-05-31T01:29:14.119Z,0
2017-05-31T01:30:14.171Z,0
2017-05-31T01:31:14.223Z,0
2017-05-31T01:32:13.978Z,0
2017-05-31T01:33:14.333Z,0
2017-05-31T01:34:14.385Z,0
2017-05-31T01:35:14.441Z,0
2017-05-31T01:36:14.497Z,0
2017-05-31T01:37:14.554Z,0
2017-05-31T01:38:14.807Z,0
2017-05-31T01:39:14.661Z,0
2017-05-31T01:40:14.416Z,0
2017-05-31T01:41:14.768Z,0
2017-05-31T01:42:14.825Z,0
2017-05-31T01:43:14.577Z,0
2017-05-31T01:44:14.944Z,0
2017-05-31T01:45:14.991Z,0
2017-05-31T01:46:15.045Z,0
2017-05-31T01:47:14.798Z,0
2017-05-31T01:48:15.365Z,0
2017-05-31T01:49:15.207Z,0
2017-05-31T01:50:15.266Z,0
2017-05-31T01:51:15.323Z,0
2017-05-31T01:52:15.372Z,0
2017-05-31T01:53:15.630Z,0
2017-05-31T01:54:15.486Z,0
2017-05-31T01:55:15.537Z,0
2017-05-31T01:56:15.591Z,0
2017-05-31T01:57:15.650Z,0
2017-05-31T01:58:15.700Z,0
2017-05-31T01:59:15.453Z,0
2017-05-31T02:00:15.509Z,0
2017-05-31T02:01:15.563Z,0
2017-05-31T02:02:15.317Z,0
2017-05-31T02:03:15.671Z,0
2017-05-31T02:04:15.423Z,0
2017-05-31T02:05:16.083Z,0
2017-05-31T02:06:16.141Z,0
2017-05-31T02:07:16.196Z,0
2017-05-31T02:08:15.946Z,0
2017-05-31T02:09:16.307Z,0
2017-05-31T02:10:16.061Z,0
2017-05-31T02:11:16.110Z,0
2017-05-31T02:12:16.465Z,0
2017-05-31T02:13:16.222Z,0
2017-05-31T02:14:16.585Z,0
2017-05-31T02:15:16.636Z,0
2017-05-31T02:16:16.685Z,0
2017-05-31T02:17:16.742Z,0
2017-05-31T02:18:16.489Z,0
2017-05-31T02:19:17.058Z,0
2017-05-31T02:20:30.296Z,0
2017-05-31T02:21:17.164Z,0
2017-05-31T02:22:17.011Z,0
2017-05-31T02:23:20.808Z,0
2017-05-31T02:24:16.824Z,0
2017-05-31T02:25:17.391Z,0
2017-05-31T02:26:17.232Z,0
2017-05-31T02:27:17.292Z,0
2017-05-31T02:28:17.350Z,0
2017-05-31T02:29:17.396Z,0
2017-05-31T02:30:17.451Z,0
2017-05-31T02:31:16.903Z,0
2017-05-31T02:32:17.260Z,0
2017-05-31T02:33:17.019Z,0
2017-05-31T02:34:17.671Z,0
2017-05-31T02:35:17.423Z,0
2017-05-31T02:36:17.780Z,0
2017-05-31T02:37:17.836Z,0
2017-05-31T02:38:17.586Z,0
2017-05-31T02:39:17.950Z,0
2017-05-31T02:40:17.999Z,0
2017-05-31T02:41:18.061Z,0
2017-05-31T02:42:17.808Z,0
2017-05-31T02:43:17.859Z,0
2017-05-31T02:44:18.216Z,0
2017-05-31T02:45:18.273Z,0
2017-05-31T02:46:18.328Z,0
2017-05-31T02:47:18.377Z,0
2017-05-31T02:48:31.818Z,0
2017-05-31T02:49:18.491Z,0
2017-05-31T02:50:18.243Z,0
2017-05-31T02:51:18.601Z,0
2017-05-31T02:52:18.350Z,0
2017-05-31T02:53:18.710Z,0
2017-05-31T02:54:18.763Z,0
2017-05-31T02:55:18.820Z,0
2017-05-31T02:56:18.873Z,0
2017-05-31T02:57:18.930Z,0
2017-05-31T02:58:18.985Z,0
2017-05-31T02:59:19.039Z,0
2017-05-31T03:00:19.092Z,0
2017-05-31T03:01:19.146Z,0
2017-05-31T03:02:19.204Z,0
2017-05-31T03:03:19.256Z,0
2017-05-31T03:04:19.311Z,0
2017-05-31T03:05:19.363Z,0
2017-05-31T03:06:19.422Z,0
2017-05-31T03:07:19.381Z,0
2017-05-31T03:08:19.529Z,0
2017-05-31T03:09:19.280Z,0
2017-05-31T03:10:19.078Z,0
2017-05-31T03:11:19.694Z,0
2017-05-31T03:12:19.750Z,0
2017-05-31T03:13:19.802Z,0
2017-05-31T03:14:19.857Z,0
2017-05-31T03:15:19.609Z,0
2017-05-31T03:16:19.667Z,0
2017-05-31T03:17:19.717Z,0
2017-05-31T03:18:20.076Z,0
2017-05-31T03:19:20.130Z,0
2017-05-31T03:20:20.187Z,0
2017-05-31T03:21:20.239Z,0
2017-05-31T03:22:20.295Z,0
2017-05-31T03:23:20.367Z,0
2017-05-31T03:24:20.404Z,0
2017-05-31T03:25:20.457Z,0
2017-05-31T03:26:20.511Z,0
2017-05-31T03:27:20.570Z,0
2017-05-31T03:28:20.622Z,0
2017-05-31T03:29:20.677Z,0
2017-05-31T03:30:20.429Z,0
2017-05-31T03:31:20.786Z,0
2017-05-31T03:32:20.540Z,0
2017-05-31T03:33:20.893Z,4
2017-05-31T03:34:20.945Z,4
2017-05-31T03:35:20.709Z,4
2017-05-31T03:36:21.061Z,4
2017-05-31T03:37:20.814Z,4
2017-05-31T03:38:21.166Z,4
2017-05-31T03:39:21.225Z,4
2017-05-31T03:40:21.276Z,4
2017-05-31T03:41:21.334Z,4
2017-05-31T03:42:21.387Z,4
2017-05-31T03:43:21.448Z,4
2017-05-31T03:44:21.500Z,4
2017-05-31T03:45:21.550Z,4
2017-05-31T03:46:21.606Z,4
2017-05-31T03:47:21.658Z,4
2017-05-31T03:48:21.713Z,4
2017-05-31T03:49:21.772Z,4
2017-05-31T03:50:21.821Z,4
2017-05-31T03:51:21.879Z,4
2017-05-31T03:52:21.932Z,4
2017-05-31T03:53:21.685Z,4
2017-05-31T03:54:21.738Z,4
2017-05-31T03:55:22.098Z,4
2017-05-31T03:56:22.155Z,4
2017-05-31T03:57:22.208Z,4
2017-05-31T03:58:22.259Z,4
2017-05-31T03:59:22.014Z,4
2017-05-31T04:00:22.377Z,4
2017-05-31T04:01:22.121Z,4
2017-05-31T04:02:22.479Z,4
2017-05-31T04:03:22.236Z,4
2017-05-31T04:04:22.588Z,8
2017-05-31T04:05:22.646Z,4
2017-05-31T04:06:22.701Z,8
2017-05-31T04:07:22.748Z,8
2017-05-31T04:08:22.805Z,12
2017-05-31T04:09:22.863Z,12
2017-05-31T04:10:22.917Z,12
2017-05-31T04:11:22.970Z,8
2017-05-31T04:12:22.726Z,8
2017-05-31T04:13:23.076Z,12
2017-05-31T04:14:23.130Z,12
2017-05-31T04:15:23.187Z,12
2017-05-31T04:16:23.244Z,12
2017-05-31T04:17:22.996Z,12
2017-05-31T04:18:23.050Z,12
2017-05-31T04:19:23.104Z,12
2017-05-31T04:20:22.859Z,12
2017-05-31T04:21:23.516Z,12
2017-05-31T04:22:23.570Z,12
2017-05-31T04:23:23.023Z,12
2017-05-31T04:24:23.379Z,12
2017-05-31T04:25:23.738Z,16
2017-05-31T04:26:23.794Z,16
2017-05-31T04:27:23.844Z,16
2017-05-31T04:28:23.900Z,16
2017-05-31T04:29:23.957Z,20
2017-05-31T04:30:24.015Z,16
2017-05-31T04:31:24.072Z,20
2017-05-31T04:32:24.175Z,16
2017-05-31T04:33:24.174Z,16
2017-05-31T04:34:24.228Z,16
2017-05-31T04:35:24.283Z,16
2017-05-31T04:36:24.340Z,16
2017-05-31T04:37:24.390Z,20
2017-05-31T04:38:24.451Z,20
2017-05-31T04:39:24.503Z,20
2017-05-31T04:40:24.552Z,20
2017-05-31T04:41:24.613Z,20
2017-05-31T04:42:24.366Z,20
2017-05-31T04:43:24.792Z,24
2017-05-31T04:44:24.774Z,24
2017-05-31T04:45:24.826Z,28
2017-05-31T04:46:24.883Z,28
2017-05-31T04:47:24.635Z,32
2017-05-31T04:48:24.992Z,32
2017-05-31T04:49:25.045Z,36
2017-05-31T04:50:25.101Z,36
2017-05-31T04:51:25.157Z,36
2017-05-31T04:52:25.211Z,36
2017-05-31T04:53:25.266Z,36
2017-05-31T04:54:25.322Z,36
2017-05-31T04:55:25.374Z,36
2017-05-31T04:56:25.125Z,36
2017-05-31T04:57:25.182Z,36
2017-05-31T04:58:25.587Z,36
2017-05-31T04:59:25.591Z,36
2017-05-31T05:00:25.648Z,32
2017-05-31T05:01:25.703Z,32
2017-05-31T05:02:25.504Z,32
2017-05-31T05:03:25.512Z,32
2017-05-31T05:04:25.567Z,28
2017-05-31T05:05:25.924Z,32
2017-05-31T05:06:25.674Z,28
2017-05-31T05:07:25.728Z,28
2017-05-31T05:08:25.782Z,32
2017-05-31T05:09:26.137Z,32
2017-05-31T05:10:26.196Z,32
2017-05-31T05:11:26.252Z,28
2017-05-31T05:12:26.000Z,28
2017-05-31T05:13:26.057Z,32
2017-05-31T05:14:26.411Z,32
2017-05-31T05:15:26.464Z,36
2017-05-31T05:16:26.220Z,32
2017-05-31T05:17:26.574Z,36
2017-05-31T05:18:26.629Z,40
2017-05-31T05:19:26.080Z,36
2017-05-31T05:20:26.736Z,36
2017-05-31T05:21:26.794Z,36
2017-05-31T05:22:26.548Z,40
2017-05-31T05:23:26.901Z,44
2017-05-31T05:24:26.956Z,44
2017-05-31T05:25:27.025Z,44
2017-05-31T05:26:26.763Z,44
2017-05-31T05:27:27.130Z,40
2017-05-31T05:28:27.187Z,40
2017-05-31T05:29:27.227Z,40
2017-05-31T05:30:27.290Z,40
2017-05-31T05:31:27.341Z,36
2017-05-31T05:32:27.398Z,36
2017-05-31T05:33:27.454Z,36
2017-05-31T05:34:27.503Z,36
2017-05-31T05:35:27.633Z,36
2017-05-31T05:36:27.316Z,40
2017-05-31T05:37:27.668Z,40
2017-05-31T05:38:27.721Z,40
2017-05-31T05:39:27.776Z,48
2017-05-31T05:40:27.833Z,48
2017-05-31T05:41:27.886Z,48
2017-05-31T05:42:27.645Z,48
2017-05-31T05:43:27.995Z,48
2017-05-31T05:44:28.051Z,52
2017-05-31T05:45:28.105Z,48
2017-05-31T05:46:28.157Z,48
2017-05-31T05:47:27.917Z,48
2017-05-31T05:48:27.969Z,52
2017-05-31T05:49:28.328Z,52
2017-05-31T05:50:28.076Z,56
2017-05-31T05:51:28.429Z,56
2017-05-31T05:52:28.184Z,56
2017-05-31T05:53:28.540Z,56
2017-05-31T05:54:28.599Z,60
2017-05-31T05:55:28.348Z,60
2017-05-31T05:56:28.411Z,64
2017-05-31T05:57:28.469Z,68
2017-05-31T05:58:28.820Z,72
2017-05-31T05:59:28.566Z,76
2017-05-31T06:00:28.924Z,84
2017-05-31T06:01:28.976Z,88
2017-05-31T06:02:29.030Z,96
2017-05-31T06:03:29.089Z,100
2017-05-31T06:04:29.140Z,108
2017-05-31T06:05:29.197Z,116
2017-05-31T06:06:29.267Z,128
2017-05-31T06:07:29.306Z,136
2017-05-31T06:08:29.360Z,144
2017-05-31T06:09:29.426Z,144
2017-05-31T06:10:29.468Z,152
2017-05-31T06:11:29.536Z,160
2017-05-31T06:12:29.279Z,172
2017-05-31T06:13:29.636Z,180
2017-05-31T06:14:29.691Z,192
2017-05-31T06:15:29.439Z,196
2017-05-31T06:16:29.798Z,204
2017-05-31T06:17:29.853Z,208
2017-05-31T06:18:29.908Z,208
2017-05-31T06:19:30.018Z,208
2017-05-31T06:20:30.017Z,204
2017-05-31T06:21:30.075Z,204
2017-05-31T06:22:30.127Z,200
2017-05-31T06:23:30.181Z,196
2017-05-31T06:24:30.235Z,196
2017-05-31T06:25:30.288Z,192
2017-05-31T06:26:30.348Z,192
2017-05-31T06:27:30.403Z,200
2017-05-31T06:28:30.455Z,204
2017-05-31T06:29:30.506Z,216
2017-05-31T06:30:30.565Z,216
2017-05-31T06:31:30.619Z,224
2017-05-31T06:32:30.679Z,252
2017-05-31T06:33:30.426Z,256
2017-05-31T06:34:30.781Z,332
2017-05-31T06:35:30.840Z,360
2017-05-31T06:36:30.893Z,384
2017-05-31T06:37:30.945Z,392
2017-05-31T06:38:30.699Z,400
2017-05-31T06:39:31.057Z,404
2017-05-31T06:40:31.118Z,412
2017-05-31T06:41:31.162Z,416
2017-05-31T06:42:30.916Z,420
2017-05-31T06:43:31.274Z,428
2017-05-31T06:44:31.331Z,436
2017-05-31T06:45:31.388Z,436
2017-05-31T06:46:31.446Z,440
2017-05-31T06:47:31.197Z,448
2017-05-31T06:48:31.250Z,456
2017-05-31T06:49:31.305Z,464
2017-05-31T06:50:31.667Z,468
2017-05-31T06:51:31.720Z,472
2017-05-31T06:52:31.769Z,476
2017-05-31T06:53:31.836Z,484
2017-05-31T06:54:31.886Z,484
2017-05-31T06:55:31.931Z,488
2017-05-31T06:56:31.989Z,492
2017-05-31T06:57:32.039Z,496
2017-05-31T06:58:31.792Z,496
2017-05-31T06:59:31.848Z,500
2017-05-31T07:00:32.212Z,504
2017-05-31T07:01:31.657Z,508
2017-05-31T07:02:32.318Z,508
2017-05-31T07:03:32.371Z,512
2017-05-31T07:04:32.425Z,516
2017-05-31T07:05:32.181Z,520
2017-05-31T07:06:32.539Z,524
2017-05-31T07:07:32.587Z,528
2017-05-31T07:08:32.341Z,532
2017-05-31T07:09:32.702Z,536
2017-05-31T07:10:32.758Z,536
2017-05-31T07:11:32.804Z,532
2017-05-31T07:12:32.864Z,528
2017-05-31T07:13:32.920Z,528
2017-05-31T07:14:32.972Z,532
2017-05-31T07:15:33.029Z,544
2017-05-31T07:16:33.084Z,544
2017-05-31T07:17:33.139Z,552
2017-05-31T07:18:33.194Z,556
2017-05-31T07:19:33.244Z,560
2017-05-31T07:20:33.298Z,560
2017-05-31T07:21:33.354Z,568
2017-05-31T07:22:33.409Z,568
2017-05-31T07:23:33.174Z,564
2017-05-31T07:24:33.519Z,572
2017-05-31T07:25:33.575Z,576
2017-05-31T07:26:33.629Z,576
2017-05-31T07:27:33.380Z,580
2017-05-31T07:28:33.736Z,584
2017-05-31T07:29:33.792Z,584
2017-05-31T07:30:33.845Z,580
2017-05-31T07:31:33.903Z,584
2017-05-31T07:32:33.963Z,564
2017-05-31T07:33:34.011Z,592
2017-05-31T07:34:34.062Z,592
2017-05-31T07:35:34.122Z,588
2017-05-31T07:36:34.172Z,584
2017-05-31T07:37:33.925Z,580
2017-05-31T07:38:34.002Z,584
2017-05-31T07:39:34.336Z,584
2017-05-31T07:40:34.396Z,588
2017-05-31T07:41:34.147Z,584
2017-05-31T07:42:34.503Z,584
2017-05-31T07:43:34.560Z,592
2017-05-31T07:44:34.611Z,588
2017-05-31T07:45:34.666Z,596
2017-05-31T07:46:34.724Z,592
2017-05-31T07:47:34.777Z,588
2017-05-31T07:48:34.529Z,568
2017-05-31T07:49:34.641Z,584
2017-05-31T07:50:34.937Z,580
2017-05-31T07:51:34.994Z,604
2017-05-31T07:52:35.052Z,604
2017-05-31T07:53:34.800Z,600
2017-05-31T07:54:35.167Z,604
2017-05-31T07:55:35.213Z,604
2017-05-31T07:56:35.271Z,592
2017-05-31T07:57:35.320Z,600
2017-05-31T07:58:35.378Z,600
2017-05-31T07:59:35.429Z,608
2017-05-31T08:00:35.485Z,612
2017-05-31T08:01:35.537Z,616
2017-05-31T08:02:35.594Z,620
2017-05-31T08:03:35.653Z,620
2017-05-31T08:04:35.705Z,624
2017-05-31T08:05:35.765Z,624
2017-05-31T08:06:35.814Z,628
2017-05-31T08:07:35.868Z,628
2017-05-31T08:08:35.923Z,628
2017-05-31T08:09:35.979Z,632
2017-05-31T08:10:35.732Z,636
2017-05-31T08:11:36.090Z,640
2017-05-31T08:12:36.142Z,640
2017-05-31T08:13:36.207Z,632
2017-05-31T08:14:36.259Z,624
2017-05-31T08:15:36.309Z,632
2017-05-31T08:16:36.368Z,624
2017-05-31T08:17:36.423Z,644
2017-05-31T08:18:36.480Z,656
2017-05-31T08:19:36.550Z,660
2017-05-31T08:20:36.588Z,656
2017-05-31T08:21:36.641Z,644
2017-05-31T08:22:36.691Z,668
2017-05-31T08:23:36.750Z,664
2017-05-31T08:24:36.816Z,672
2017-05-31T08:25:36.857Z,668
2017-05-31T08:26:36.614Z,672
2017-05-31T08:27:36.968Z,680
2017-05-31T08:28:37.025Z,680
2017-05-31T08:29:37.092Z,684
2017-05-31T08:30:37.143Z,688
2017-05-31T08:31:36.887Z,688
2017-05-31T08:32:36.942Z,692
2017-05-31T08:33:37.297Z,692
2017-05-31T08:34:37.053Z,696
2017-05-31T08:35:37.108Z,704
2017-05-31T08:36:37.462Z,708
2017-05-31T08:37:37.513Z,708
2017-05-31T08:38:37.270Z,712
2017-05-31T08:39:37.628Z,720
2017-05-31T08:40:37.689Z,720
2017-05-31T08:41:37.740Z,716
2017-05-31T08:42:37.492Z,676
2017-05-31T08:43:37.847Z,720
2017-05-31T08:44:37.899Z,728
2017-05-31T08:45:37.961Z,708
2017-05-31T08:46:38.019Z,740
2017-05-31T08:47:38.071Z,740
2017-05-31T08:48:38.125Z,744
2017-05-31T08:49:38.182Z,744
2017-05-31T08:50:38.233Z,744
2017-05-31T08:51:38.291Z,748
2017-05-31T08:52:38.343Z,752
2017-05-31T08:53:38.395Z,740
2017-05-31T08:54:38.455Z,736
2017-05-31T08:55:38.511Z,736
2017-05-31T08:56:38.564Z,748
2017-05-31T08:57:38.618Z,752
2017-05-31T08:58:38.676Z,768
2017-05-31T08:59:38.731Z,772
2017-05-31T09:00:38.793Z,772
2017-05-31T09:01:38.837Z,776
2017-05-31T09:02:38.890Z,776
2017-05-31T09:03:38.949Z,776
2017-05-31T09:04:39.005Z,784
2017-05-31T09:05:38.756Z,788
2017-05-31T09:06:39.114Z,792
2017-05-31T09:07:39.171Z,796
2017-05-31T09:08:38.922Z,796
2017-05-31T09:09:39.278Z,720
2017-05-31T09:10:39.339Z,784
2017-05-31T09:11:39.390Z,808
2017-05-31T09:12:39.442Z,796
2017-05-31T09:13:39.500Z,816
2017-05-31T09:14:39.556Z,816
2017-05-31T09:15:39.306Z,820
2017-05-31T09:16:39.665Z,828
2017-05-31T09:17:39.721Z,824
2017-05-31T09:18:39.776Z,828
2017-05-31T09:19:39.827Z,832
2017-05-31T09:20:39.887Z,836
2017-05-31T09:21:39.938Z,840
2017-05-31T09:22:39.697Z,844
2017-05-31T09:23:39.749Z,848
2017-05-31T09:24:40.109Z,848
2017-05-31T09:25:40.159Z,840
2017-05-31T09:26:40.217Z,836
2017-05-31T09:27:40.271Z,800
2017-05-31T09:28:40.324Z,780
2017-05-31T09:29:40.379Z,844
2017-05-31T09:30:40.436Z,884
2017-05-31T09:31:40.190Z,884
2017-05-31T09:32:40.544Z,880
2017-05-31T09:33:40.298Z,872
2017-05-31T09:34:40.654Z,796
2017-05-31T09:35:40.712Z,852
2017-05-31T09:36:40.768Z,896
2017-05-31T09:37:40.520Z,892
2017-05-31T09:38:40.882Z,880
2017-05-31T09:39:40.941Z,884
2017-05-31T09:40:40.987Z,880
2017-05-31T09:41:41.050Z,884
2017-05-31T09:42:41.104Z,900
2017-05-31T09:43:40.853Z,888
2017-05-31T09:44:40.909Z,896
2017-05-31T09:45:40.965Z,904
2017-05-31T09:46:41.324Z,900
2017-05-31T09:47:41.375Z,904
2017-05-31T09:48:41.432Z,908
2017-05-31T09:49:41.186Z,908
2017-05-31T09:50:41.240Z,912
2017-05-31T09:51:41.291Z,916
2017-05-31T09:52:41.351Z,916
2017-05-31T09:53:41.707Z,908
2017-05-31T09:54:41.761Z,924
2017-05-31T09:55:41.819Z,936
2017-05-31T09:56:41.873Z,948
2017-05-31T09:57:41.922Z,960
2017-05-31T09:58:41.979Z,964
2017-05-31T09:59:42.065Z,972
2017-05-31T10:00:42.100Z,976
2017-05-31T10:01:42.146Z,980
2017-05-31T10:02:41.897Z,988
2017-05-31T10:03:42.259Z,988
2017-05-31T10:04:42.314Z,992
2017-05-31T10:05:42.364Z,1000
2017-05-31T10:06:42.425Z,1008
2017-05-31T10:07:42.476Z,1000
2017-05-31T10:08:42.237Z,1004
2017-05-31T10:09:42.287Z,1012
2017-05-31T10:10:42.644Z,1012
2017-05-31T10:11:42.399Z,1012
2017-05-31T10:12:42.750Z,1012
2017-05-31T10:13:42.807Z,1020
2017-05-31T10:14:42.862Z,1036
2017-05-31T10:15:42.917Z,1036
2017-05-31T10:16:42.673Z,1044
2017-05-31T10:17:43.034Z,1048
2017-05-31T10:18:43.087Z,1056
2017-05-31T10:19:42.839Z,1060
2017-05-31T10:20:42.895Z,1076
2017-05-31T10:21:43.250Z,1088
2017-05-31T10:22:43.306Z,1100
2017-05-31T10:23:43.361Z,1096
2017-05-31T10:24:43.413Z,1100
2017-05-31T10:25:43.473Z,1100
2017-05-31T10:26:43.525Z,1076
2017-05-31T10:27:43.580Z,1068
2017-05-31T10:28:43.639Z,1000
2017-05-31T10:29:43.693Z,976
2017-05-31T10:30:43.749Z,412
2017-05-31T10:31:43.800Z,412
2017-05-31T10:32:43.859Z,420
2017-05-31T10:33:43.911Z,448
2017-05-31T10:34:43.668Z,472
2017-05-31T10:35:43.726Z,488
2017-05-31T10:36:44.083Z,532
2017-05-31T10:37:44.139Z,460
2017-05-31T10:38:44.196Z,996
2017-05-31T10:39:44.246Z,472
2017-05-31T10:40:44.297Z,508
2017-05-31T10:41:44.358Z,540
2017-05-31T10:42:44.411Z,584
2017-05-31T10:43:44.468Z,644
2017-05-31T10:44:44.522Z,1152
2017-05-31T10:45:44.274Z,1164
2017-05-31T10:46:44.632Z,1156
2017-05-31T10:47:44.384Z,1116
2017-05-31T10:48:44.739Z,588
2017-05-31T10:49:44.794Z,596
2017-05-31T10:50:44.849Z,1148
2017-05-31T10:51:44.905Z,1152
2017-05-31T10:52:44.656Z,1140
2017-05-31T10:53:45.018Z,1184
2017-05-31T10:54:45.073Z,824
2017-05-31T10:55:45.128Z,604
2017-05-31T10:56:45.182Z,1084
2017-05-31T10:57:45.234Z,612
2017-05-31T10:58:45.295Z,1228
2017-05-31T10:59:45.351Z,892
2017-05-31T11:00:45.401Z,1388
2017-05-31T11:01:45.159Z,1348
2017-05-31T11:02:45.516Z,840
2017-05-31T11:03:45.571Z,844
2017-05-31T11:04:45.322Z,1124
2017-05-31T11:05:45.379Z,804
2017-05-31T11:06:45.736Z,972
2017-05-31T11:07:45.789Z,1408
2017-05-31T11:08:45.845Z,1104
2017-05-31T11:09:45.900Z,1596
2017-05-31T11:10:45.954Z,1060
2017-05-31T11:11:46.016Z,1288
2017-05-31T11:12:46.076Z,1048
2017-05-31T11:13:46.128Z,816
2017-05-31T11:14:45.877Z,740
2017-05-31T11:15:46.245Z,752
2017-05-31T11:16:46.289Z,792
2017-05-31T11:17:46.346Z,884
2017-05-31T11:18:46.396Z,980
2017-05-31T11:19:46.457Z,1592
2017-05-31T11:20:46.214Z,1260
2017-05-31T11:21:46.268Z,1020
2017-05-31T11:22:46.620Z,736
2017-05-31T11:23:46.382Z,668
2017-05-31T11:24:46.732Z,648
2017-05-31T11:25:46.793Z,652
2017-05-31T11:26:46.840Z,688
2017-05-31T11:27:46.593Z,696
2017-05-31T11:28:46.952Z,696
2017-05-31T11:29:47.014Z,692
2017-05-31T11:30:47.064Z,772
2017-05-31T11:31:47.116Z,972
2017-05-31T11:32:46.874Z,1192
2017-05-31T11:33:47.230Z,1556
2017-05-31T11:34:47.286Z,1584
2017-05-31T11:35:47.344Z,1260
2017-05-31T11:36:47.397Z,1312
2017-05-31T11:37:47.151Z,1764
2017-05-31T11:38:47.564Z,1596
2017-05-31T11:39:47.562Z,1356
2017-05-31T11:40:47.617Z,1304
2017-05-31T11:41:47.681Z,1072
2017-05-31T11:42:47.727Z,956
2017-05-31T11:43:47.786Z,700
2017-05-31T11:44:47.536Z,632
2017-05-31T11:45:47.895Z,604
2017-05-31T11:46:47.648Z,596
2017-05-31T11:47:47.999Z,612
2017-05-31T11:48:48.060Z,620
2017-05-31T11:49:47.812Z,596
2017-05-31T11:50:48.187Z,552
2017-05-31T11:51:48.224Z,552
2017-05-31T11:52:48.278Z,572
2017-05-31T11:53:48.336Z,652
2017-05-31T11:54:48.393Z,748
2017-05-31T11:55:48.446Z,588
2017-05-31T11:56:48.502Z,532
2017-05-31T11:57:48.558Z,484
2017-05-31T11:58:48.608Z,456
2017-05-31T11:59:48.668Z,444
2017-05-31T12:00:48.721Z,444
2017-05-31T12:01:48.781Z,448
2017-05-31T12:02:48.827Z,460
2017-05-31T12:03:48.889Z,472
2017-05-31T12:04:48.947Z,500
2017-05-31T12:05:48.998Z,532
2017-05-31T12:06:49.055Z,568
2017-05-31T12:07:48.805Z,596
2017-05-31T12:08:49.168Z,624
2017-05-31T12:09:49.223Z,652
2017-05-31T12:10:49.280Z,696
2017-05-31T12:11:49.333Z,736
2017-05-31T12:12:49.086Z,744
2017-05-31T12:13:48.834Z,752
2017-05-31T12:14:49.196Z,736
2017-05-31T12:15:49.252Z,744
2017-05-31T12:16:49.620Z,764
2017-05-31T12:17:49.693Z,784
2017-05-31T12:18:49.419Z,808
2017-05-31T12:19:49.773Z,848
2017-05-31T12:20:49.529Z,932
2017-05-31T12:21:49.884Z,904
2017-05-31T12:22:49.937Z,916
2017-05-31T12:23:49.991Z,860
2017-05-31T12:24:50.045Z,892
2017-05-31T12:25:50.104Z,952
2017-05-31T12:26:50.159Z,1024
2017-05-31T12:27:50.217Z,948
2017-05-31T12:28:50.274Z,1012
2017-05-31T12:29:50.331Z,756
2017-05-31T12:30:50.382Z,564
2017-05-31T12:31:50.438Z,492
2017-05-31T12:32:50.489Z,448
2017-05-31T12:33:50.545Z,420
2017-05-31T12:34:50.602Z,432
2017-05-31T12:35:50.659Z,456
2017-05-31T12:36:50.713Z,432
2017-05-31T12:37:50.768Z,428
2017-05-31T12:38:50.821Z,448
2017-05-31T12:39:50.877Z,460
2017-05-31T12:40:50.933Z,468
2017-05-31T12:41:50.989Z,456
2017-05-31T12:42:50.749Z,448
2017-05-31T12:43:51.101Z,436
2017-05-31T12:44:51.153Z,396
2017-05-31T12:45:51.211Z,388
2017-05-31T12:46:51.267Z,392
2017-05-31T12:47:51.019Z,388
2017-05-31T12:48:51.379Z,392
2017-05-31T12:49:51.130Z,392
2017-05-31T12:50:51.485Z,372
2017-05-31T12:51:51.545Z,356
2017-05-31T12:52:51.298Z,344
2017-05-31T12:53:51.654Z,340
2017-05-31T12:54:51.711Z,336
2017-05-31T12:55:51.467Z,332
2017-05-31T12:56:51.520Z,328
2017-05-31T12:57:51.874Z,324
2017-05-31T12:58:51.629Z,320
2017-05-31T12:59:51.990Z,320
2017-05-31T13:00:52.047Z,316
2017-05-31T13:01:52.103Z,316
2017-05-31T13:02:52.158Z,312
2017-05-31T13:03:52.212Z,312
2017-05-31T13:04:52.267Z,312
2017-05-31T13:05:52.333Z,312
2017-05-31T13:06:52.072Z,308
2017-05-31T13:07:52.134Z,312
2017-05-31T13:08:52.187Z,316
2017-05-31T13:09:52.538Z,316
2017-05-31T13:10:52.598Z,312
2017-05-31T13:11:52.649Z,316
2017-05-31T13:12:52.710Z,316
2017-05-31T13:13:52.763Z,316
2017-05-31T13:14:52.818Z,312
2017-05-31T13:15:52.572Z,312
2017-05-31T13:16:52.928Z,316
2017-05-31T13:17:52.985Z,320
2017-05-31T13:18:53.040Z,320
2017-05-31T13:19:53.101Z,324
2017-05-31T13:20:53.154Z,324
2017-05-31T13:21:53.204Z,328
2017-05-31T13:22:53.260Z,332
2017-05-31T13:23:53.326Z,336
2017-05-31T13:24:53.069Z,344
2017-05-31T13:25:53.432Z,356
2017-05-31T13:26:53.488Z,372
2017-05-31T13:27:53.541Z,392
2017-05-31T13:28:53.597Z,412
2017-05-31T13:29:53.709Z,428
2017-05-31T13:30:53.707Z,448
2017-05-31T13:31:53.763Z,464
2017-05-31T13:32:53.815Z,480
2017-05-31T13:33:53.875Z,492
2017-05-31T13:34:53.926Z,500
2017-05-31T13:35:53.980Z,492
2017-05-31T13:36:53.735Z,484
2017-05-31T13:37:54.091Z,464
2017-05-31T13:38:53.844Z,448
2017-05-31T13:39:53.903Z,436
2017-05-31T13:40:54.259Z,416
2017-05-31T13:41:54.327Z,404
2017-05-31T13:42:54.366Z,396
2017-05-31T13:43:54.121Z,392
2017-05-31T13:44:54.479Z,396
2017-05-31T13:45:54.238Z,400
2017-05-31T13:46:54.592Z,412
2017-05-31T13:47:54.349Z,432
2017-05-31T13:48:54.703Z,436
2017-05-31T13:49:54.455Z,432
2017-05-31T13:50:54.509Z,416
2017-05-31T13:51:54.872Z,408
2017-05-31T13:52:54.924Z,396
2017-05-31T13:53:54.973Z,396
2017-05-31T13:54:55.030Z,364
2017-05-31T13:55:55.085Z,356
2017-05-31T13:56:55.141Z,348
2017-05-31T13:57:54.897Z,340
2017-05-31T13:58:54.952Z,324
2017-05-31T13:59:55.307Z,348
2017-05-31T14:00:54.762Z,360
2017-05-31T14:01:55.416Z,356
2017-05-31T14:02:55.172Z,336
2017-05-31T14:03:55.227Z,340
2017-05-31T14:04:55.584Z,352
2017-05-31T14:05:55.644Z,356